Atlantic Princess — VNAP — position and weather

sailwx.info

Track history (hours):
 
Tides and Currents Weather Stations Pressure Air Temp Water Temp Dewpoint Dewpoint Depression Visibility Wind Speed Wind Dir Waves Ship Positions

Atlantic Princess

Last reported at 2017-Sep-20 21:57 UTC. Time now 2017-Nov-18 12:29 UTC.
Position S 27°49' E 153°29'.
Warning: this ship's position is 58 days out of date.

Length 24 m.

Type: Pleasure craft. MMSI: 503188700.

Date/timePositionNaut miles runAvg speedWind from/ knotsBaromVisibWave heightAir tempDewpointWater temp
2017-Sep-20 21:57S 27°49' E 153°29'4 8.0
2017-Sep-20 21:29S 27°53' E 153°28'4 6.4
2017-Sep-20 20:50S 27°56' E 153°25'3 6.5
2017-Sep-20 20:25S 27°53' E 153°25'2 3.9
2017-Sep-20 19:58S 27°53' E 153°23'2 4.5
2017-Sep-20 19:27S 27°51' E 153°21'1 2.6
2017-Sep-20 19:00S 27°52' E 153°20'0 0.0
2017-Sep-20 18:30S 27°52' E 153°20'0 0.0
2017-Sep-20 18:00S 27°52' E 153°20'0 0.0
2017-Sep-20 17:30S 27°52' E 153°20'0 0.0
2017-Sep-20 16:57S 27°52' E 153°20'0 0.0
2017-Sep-20 16:27S 27°52' E 153°20'0 0.0
2017-Sep-20 15:57S 27°52' E 153°20'0 0.0
2017-Sep-20 15:30S 27°52' E 153°20'0 0.0
2017-Sep-20 14:54S 27°52' E 153°20'0 0.0
2017-Sep-20 14:00S 27°52' E 153°20'0 0.0
2017-Sep-20 13:30S 27°52' E 153°20'0 0.0
2017-Sep-20 13:00S 27°52' E 153°20'0 0.0
2017-Sep-20 12:30S 27°52' E 153°20'0 0.0
2017-Sep-20 12:00S 27°52' E 153°20'0 0.0
2017-Sep-20 11:30S 27°52' E 153°20'0 0.0
2017-Sep-20 10:57S 27°52' E 153°20'0 0.0
2017-Sep-20 10:30S 27°52' E 153°20'0 0.0
2017-Sep-20 10:00S 27°52' E 153°20'0 0.0
2017-Sep-20 09:30S 27°52' E 153°20'0 0.0
2017-Sep-20 09:00S 27°52' E 153°20'0 0.0
2017-Sep-20 08:30S 27°52' E 153°20'0 0.0
2017-Sep-20 08:00S 27°52' E 153°20'0 0.0
2017-Sep-20 07:27S 27°52' E 153°20'0 0.0
2017-Sep-20 06:57S 27°52' E 153°20'0 0.0
2017-Sep-20 06:30S 27°52' E 153°20'0 0.0
2017-Sep-20 06:00S 27°52' E 153°20'0 0.0
2017-Sep-20 05:30S 27°52' E 153°20'0 0.0
2017-Sep-20 05:00S 27°52' E 153°20'0 0.0
2017-Sep-20 04:30S 27°52' E 153°20'0 0.0
2017-Sep-20 04:00S 27°52' E 153°20'0 0.0
2017-Sep-20 03:27S 27°52' E 153°20'0 0.0
2017-Sep-20 02:57S 27°52' E 153°20'0 0.0
2017-Sep-20 02:30S 27°52' E 153°20'0 0.0
2017-Sep-20 02:00S 27°52' E 153°20'0 0.0
2017-Sep-20 01:30S 27°52' E 153°20'0 0.0
2017-Sep-20 01:00S 27°52' E 153°20'0 1.0
2017-Sep-20 00:30S 27°52' E 153°21'2 3.8
2017-Sep-19 23:59S 27°52' E 153°23'4 2.7
2017-Sep-19 22:32S 27°56' E 153°25'0 7.3
2017-Sep-19 22:30S 27°55' E 153°25'3 7.0
2017-Sep-19 22:00S 27°52' E 153°25'3 4.3
2017-Sep-19 21:25S 27°51' E 153°22'2 3.0
2017-Sep-19 20:53S 27°52' E 153°20'0 0.0
2017-Sep-19 20:29S 27°52' E 153°20'0 0.0
2017-Sep-19 19:59S 27°52' E 153°20'0 0.0
2017-Sep-19 19:23S 27°52' E 153°20'0 0.0
2017-Sep-19 18:50S 27°52' E 153°20'0 0.0
2017-Sep-19 18:26S 27°52' E 153°20'0 0.0
2017-Sep-19 17:59S 27°52' E 153°20'0 0.0
2017-Sep-19 17:29S 27°52' E 153°20'0 0.0
2017-Sep-19 15:05S 27°52' E 153°20'0 0.0
2017-Sep-19 14:56S 27°52' E 153°20'0 0.0
2017-Sep-19 14:26S 27°52' E 153°20'0 0.0
2017-Sep-19 13:56S 27°52' E 153°20'0 0.0
2017-Sep-19 13:26S 27°52' E 153°20'0 0.0
2017-Sep-19 12:59S 27°52' E 153°20'0 0.0
2017-Sep-19 12:29S 27°52' E 153°20'0 0.0
2017-Sep-19 11:59S 27°52' E 153°20'0 0.0
2017-Sep-19 11:29S 27°52' E 153°20'0 0.0
2017-Sep-19 10:32S 27°52' E 153°20'0 0.0
2017-Sep-19 10:11S 27°52' E 153°20'0 0.0
2017-Sep-19 09:32S 27°52' E 153°20'0 0.0
2017-Sep-19 09:20S 27°52' E 153°20'0 0.0
2017-Sep-19 08:50S 27°52' E 153°20'0 0.0
2017-Sep-19 08:20S 27°52' E 153°20'0 0.0
2017-Sep-19 07:59S 27°52' E 153°20'0 0.0
2017-Sep-19 07:29S 27°52' E 153°20'0 0.0
2017-Sep-19 06:50S 27°52' E 153°20'0 0.0
2017-Sep-19 06:29S 27°52' E 153°20'0 0.0
2017-Sep-19 05:56S 27°52' E 153°20'0 0.0
2017-Sep-19 05:20S 27°52' E 153°20'0 0.0
2017-Sep-19 04:59S 27°52' E 153°20'0 0.0
2017-Sep-19 04:26S 27°52' E 153°20'0 0.0
2017-Sep-19 03:53S 27°52' E 153°20'0 0.0
2017-Sep-19 03:29S 27°52' E 153°20'0 0.0
2017-Sep-19 02:59S 27°52' E 153°20'0 0.0
2017-Sep-19 02:29S 27°52' E 153°20'0 0.0
2017-Sep-19 01:53S 27°52' E 153°20'0 0.0
2017-Sep-19 01:29S 27°52' E 153°20'0 0.0
2017-Sep-19 00:59S 27°52' E 153°20'0 0.0
2017-Sep-19 00:29S 27°52' E 153°20'0 0.0
2017-Sep-18 23:53S 27°52' E 153°20'0 0.0
2017-Sep-18 23:26S 27°52' E 153°20'0 0.0
2017-Sep-18 22:56S 27°52' E 153°20'0 0.0
2017-Sep-18 22:29S 27°52' E 153°20'0 0.0
2017-Sep-18 21:56S 27°52' E 153°20'0 0.0
2017-Sep-18 21:29S 27°52' E 153°20'0 0.0
2017-Sep-18 20:59S 27°52' E 153°20'0 0.0
2017-Sep-18 20:26S 27°52' E 153°20'0 0.0
2017-Sep-18 19:50S 27°52' E 153°20'0 0.0
2017-Sep-18 19:26S 27°52' E 153°20'0 0.0
2017-Sep-18 18:59S 27°52' E 153°20'0 0.0
2017-Sep-18 18:26S 27°52' E 153°20'0 0.0
2017-Sep-18 17:59S 27°52' E 153°20'0 0.0
2017-Sep-18 17:20S 27°52' E 153°20'0 0.0
2017-Sep-18 16:59S 27°52' E 153°20'0 0.0
2017-Sep-18 16:29S 27°52' E 153°20'0 0.0
2017-Sep-18 15:59S 27°52' E 153°20'0 0.0
2017-Sep-18 15:29S 27°52' E 153°20'0 0.0
2017-Sep-18 14:59S 27°52' E 153°20'0 0.0
2017-Sep-18 14:29S 27°52' E 153°20'0 0.0
2017-Sep-18 13:56S 27°52' E 153°20'0 0.0
2017-Sep-18 13:29S 27°52' E 153°20'0 0.0
2017-Sep-18 12:56S 27°52' E 153°20'0 0.0
2017-Sep-18 12:29S 27°52' E 153°20'0 0.0
2017-Sep-18 11:59S 27°52' E 153°20'0 0.0
2017-Sep-18 11:29S 27°52' E 153°20'0 0.0
2017-Sep-18 10:59S 27°52' E 153°20'0 0.0
2017-Sep-18 10:29S 27°52' E 153°20'0 0.0
2017-Sep-18 09:59S 27°52' E 153°20'0 0.0
2017-Sep-18 09:26S 27°52' E 153°20'0 0.0
2017-Sep-18 08:56S 27°52' E 153°20'0 0.0
2017-Sep-18 08:29S 27°52' E 153°20'0 0.0
2017-Sep-18 07:56S 27°52' E 153°20'0 0.0
2017-Sep-18 07:29S 27°52' E 153°20'0 0.0
2017-Sep-18 06:59S 27°52' E 153°20'0 0.0
2017-Sep-18 06:17S 27°52' E 153°20'0 0.0
2017-Sep-18 05:59S 27°52' E 153°20'0 0.0
2017-Sep-18 05:23S 27°52' E 153°20'0 0.0
2017-Sep-18 04:59S 27°52' E 153°20'0 0.0
2017-Sep-18 04:26S 27°52' E 153°20'0 0.0
2017-Sep-18 03:55S 27°52' E 153°20'0 0.0
2017-Sep-18 03:01S 27°52' E 153°20'0 0.0
2017-Sep-18 02:55S 27°52' E 153°20'0 0.0
2017-Sep-18 02:25S 27°52' E 153°20'0 0.0
2017-Sep-18 01:59S 27°52' E 153°20'0 0.0
2017-Sep-18 01:26S 27°52' E 153°20'0 0.0
2017-Sep-18 00:59S 27°52' E 153°20'0 0.0
2017-Sep-18 00:23S 27°52' E 153°20'0 0.0
2017-Sep-17 21:17S 27°52' E 153°20'0 0.0
2017-Sep-17 20:59S 27°52' E 153°20'0 0.0
2017-Sep-17 20:29S 27°52' E 153°20'0 0.0
2017-Sep-17 19:56S 27°52' E 153°20'0 0.0
2017-Sep-17 19:29S 27°52' E 153°20'0 0.0
2017-Sep-17 18:59S 27°52' E 153°20'0 0.0
2017-Sep-17 18:29S 27°52' E 153°20'0 0.0
2017-Sep-17 17:59S 27°52' E 153°20'0 0.0
2017-Sep-17 17:29S 27°52' E 153°20'0 0.0
2017-Sep-17 16:59S 27°52' E 153°20'0 0.0
2017-Sep-17 16:29S 27°52' E 153°20'0 0.0
2017-Sep-17 15:59S 27°52' E 153°20'0 0.0
2017-Sep-17 15:26S 27°52' E 153°20'0 0.0
2017-Sep-17 14:56S 27°52' E 153°20'0 0.0
2017-Sep-17 14:29S 27°52' E 153°20'0 0.0
2017-Sep-17 13:59S 27°52' E 153°20'0 0.0
2017-Sep-17 13:29S 27°52' E 153°20'0 0.0
2017-Sep-17 12:59S 27°52' E 153°20'0 0.0
2017-Sep-17 12:29S 27°52' E 153°20'0 0.0
2017-Sep-17 11:59S 27°52' E 153°20'0 0.0
2017-Sep-17 08:56S 27°52' E 153°20'0 0.0
2017-Sep-17 08:29S 27°52' E 153°20'0 0.0
2017-Sep-17 04:56S 27°52' E 153°20'0 0.0
2017-Sep-17 04:29S 27°52' E 153°20'0 0.0
2017-Sep-17 03:59S 27°52' E 153°20'0 0.0
2017-Sep-17 03:29S 27°52' E 153°20'0 0.0
2017-Sep-17 00:38S 27°52' E 153°20'0 0.0
2017-Sep-17 00:26S 27°52' E 153°20'0 0.0
2017-Sep-16 20:26S 27°52' E 153°20'0 0.0
2017-Sep-16 19:59S 27°52' E 153°20'0 0.0
2017-Sep-16 19:26S 27°52' E 153°20'0 0.0
2017-Sep-16 18:59S 27°52' E 153°20'0 0.0
2017-Sep-16 18:26S 27°52' E 153°20'0 0.0
2017-Sep-16 17:59S 27°52' E 153°20'0 0.0
2017-Sep-16 17:29S 27°52' E 153°20'0 0.0
2017-Sep-16 16:59S 27°52' E 153°20'0 0.0
2017-Sep-16 16:29S 27°52' E 153°20'0 0.0
2017-Sep-16 15:56S 27°52' E 153°20'0 0.0
2017-Sep-16 15:29S 27°52' E 153°20'0 0.0
2017-Sep-16 14:56S 27°52' E 153°20'0 0.0
2017-Sep-16 14:02S 27°52' E 153°20'0 0.1
2017-Sep-16 13:56S 27°52' E 153°20'0 0.0
2017-Sep-16 13:29S 27°52' E 153°20'0 0.0
2017-Sep-16 10:14S 27°52' E 153°20'0 0.0
2017-Sep-16 09:56S 27°52' E 153°20'0 0.0
2017-Sep-16 09:29S 27°52' E 153°20'0 0.0
2017-Sep-16 08:59S 27°52' E 153°20'0 0.0
2017-Sep-16 08:14S 27°52' E 153°20'0 0.0
2017-Sep-16 07:20S 27°52' E 153°20'0 0.0
2017-Sep-16 06:59S 27°52' E 153°20'0 0.0
2017-Sep-16 06:29S 27°52' E 153°20'0 0.0
2017-Sep-15 23:53S 27°52' E 153°20'0 0.0
2017-Sep-15 23:29S 27°52' E 153°20'0 0.0
2017-Sep-15 22:59S 27°52' E 153°20'0 0.0
2017-Sep-15 22:26S 27°52' E 153°20'0 0.0
2017-Sep-15 21:50S 27°52' E 153°20'0 0.0
2017-Sep-15 21:29S 27°52' E 153°20'0 0.0
2017-Sep-15 20:53S 27°52' E 153°20'0 0.0
2017-Sep-15 20:29S 27°52' E 153°20'0 0.0
2017-Sep-15 19:59S 27°52' E 153°20'0 0.0
2017-Sep-15 19:23S 27°52' E 153°20'0 0.0
2017-Sep-15 18:59S 27°52' E 153°20'0 0.0
2017-Sep-15 18:29S 27°52' E 153°20'0 0.0
2017-Sep-15 17:59S 27°52' E 153°20'0 0.0
2017-Sep-15 17:29S 27°52' E 153°20'0 0.0
2017-Sep-15 16:59S 27°52' E 153°20'0 0.0
2017-Sep-15 16:26S 27°52' E 153°20'0 0.0
2017-Sep-15 15:56S 27°52' E 153°20'0 0.0
2017-Sep-15 15:29S 27°52' E 153°20'0 0.0
2017-Sep-15 14:59S 27°52' E 153°20'0 0.0
2017-Sep-15 14:29S 27°52' E 153°20'0 0.0
2017-Sep-15 13:59S 27°52' E 153°20'0 0.0
2017-Sep-15 13:29S 27°52' E 153°20'0 0.0
2017-Sep-15 12:59S 27°52' E 153°20'0 0.0
2017-Sep-15 12:26S 27°52' E 153°20'0 0.0
2017-Sep-15 11:59S 27°52' E 153°20'0 0.0
2017-Sep-15 11:29S 27°52' E 153°20'0 0.0
2017-Sep-15 10:59S 27°52' E 153°20'0 0.0
2017-Sep-15 10:29S 27°52' E 153°20'0 0.0
2017-Sep-15 09:59S 27°52' E 153°20'0 0.0
2017-Sep-15 09:29S 27°52' E 153°20'0 0.0
2017-Sep-15 08:59S 27°52' E 153°20'0 0.0
2017-Sep-15 08:29S 27°52' E 153°20'0 0.0
2017-Sep-15 07:59S 27°52' E 153°20'0 0.0
2017-Sep-15 07:29S 27°52' E 153°20'0 0.0
2017-Sep-15 06:56S 27°52' E 153°20'0 0.0
2017-Sep-15 05:47S 27°52' E 153°20'0 0.0
2017-Sep-15 05:29S 27°52' E 153°20'0 0.0
2017-Sep-15 04:53S 27°52' E 153°20'0 0.0
2017-Sep-14 22:59S 27°52' E 153°20'0 0.0
2017-Sep-14 22:29S 27°52' E 153°20'0 0.0
2017-Sep-14 21:56S 27°52' E 153°20'0 0.0
2017-Sep-14 21:29S 27°52' E 153°20'0 0.0
2017-Sep-14 20:59S 27°52' E 153°20'0 0.0
2017-Sep-14 20:29S 27°52' E 153°20'0 0.0
2017-Sep-14 19:59S 27°52' E 153°20'0 0.0
2017-Sep-14 19:29S 27°52' E 153°20'0 0.0
2017-Sep-14 18:59S 27°52' E 153°20'0 0.0
2017-Sep-14 18:29S 27°52' E 153°20'0 0.0
2017-Sep-14 17:59S 27°52' E 153°20'0 0.0
2017-Sep-14 17:23S 27°52' E 153°20'0 0.0
2017-Sep-14 16:59S 27°52' E 153°20'0 0.0
2017-Sep-14 16:29S 27°52' E 153°20'0 0.0
2017-Sep-14 15:59S 27°52' E 153°20'0 0.0
2017-Sep-14 15:29S 27°52' E 153°20'0 0.0
2017-Sep-14 14:59S 27°52' E 153°20'0 0.0
2017-Sep-14 14:29S 27°52' E 153°20'0 0.0
2017-Sep-14 13:59S 27°52' E 153°20'0 0.0
2017-Sep-14 13:29S 27°52' E 153°20'0 0.0
2017-Sep-14 12:59S 27°52' E 153°20'0 0.0
2017-Sep-14 12:29S 27°52' E 153°20'0 0.0
2017-Sep-14 11:59S 27°52' E 153°20'0 0.0
2017-Sep-14 11:29S 27°52' E 153°20'0 0.0
2017-Sep-14 10:50S 27°52' E 153°20'0 0.0
2017-Sep-14 10:29S 27°52' E 153°20'0 0.0
2017-Sep-14 09:59S 27°52' E 153°20'0 0.0
2017-Sep-14 09:29S 27°52' E 153°20'0 0.0
2017-Sep-14 08:59S 27°52' E 153°20'0 0.0
2017-Sep-14 08:29S 27°52' E 153°20'0 0.0
2017-Sep-14 07:59S 27°52' E 153°20'0 0.8
2017-Sep-14 07:26S 27°52' E 153°20'0 0.0
2017-Sep-14 06:56S 27°52' E 153°20'0 0.0
2017-Sep-14 06:29S 27°52' E 153°20'0 0.0
2017-Sep-14 05:59S 27°52' E 153°20'0 0.0
2017-Sep-14 05:30S 27°52' E 153°20'0 0.9
2017-Sep-14 05:00S 27°52' E 153°20'0 0.0
2017-Sep-14 04:30S 27°52' E 153°20'0 0.0
2017-Sep-14 04:00S 27°52' E 153°20'0 0.0
2017-Sep-14 03:24S 27°52' E 153°20'0 0.0
2017-Sep-14 02:51S 27°52' E 153°20'0 0.0
2017-Sep-14 02:30S 27°52' E 153°20'0 0.0
2017-Sep-14 02:00S 27°52' E 153°20'0 0.0
2017-Sep-14 01:06S 27°52' E 153°20'0 0.0
2017-Sep-14 00:45S 27°52' E 153°20'0 0.0
2017-Sep-14 00:30S 27°52' E 153°20'0 0.0
2017-Sep-13 23:54S 27°52' E 153°20'0 0.0
2017-Sep-13 23:27S 27°52' E 153°20'0 0.0
2017-Sep-13 19:48S 27°52' E 153°20'0 0.0
2017-Sep-13 19:30S 27°52' E 153°20'0 0.0
2017-Sep-13 18:51S 27°52' E 153°20'0 0.0
2017-Sep-13 18:30S 27°52' E 153°20'0 0.0
2017-Sep-13 18:00S 27°52' E 153°20'0 0.0
2017-Sep-13 17:30S 27°52' E 153°20'0 0.0
2017-Sep-13 16:57S 27°52' E 153°20'0 0.0
2017-Sep-13 16:30S 27°52' E 153°20'0 0.0
2017-Sep-13 15:57S 27°52' E 153°20'0 0.0
2017-Sep-13 15:30S 27°52' E 153°20'0 0.0
2017-Sep-13 15:01S 27°52' E 153°20'0 0.0
2017-Sep-13 14:30S 27°52' E 153°20'0 0.0
2017-Sep-13 14:00S 27°52' E 153°20'0 0.0
2017-Sep-13 13:30S 27°52' E 153°20'0 0.0
2017-Sep-13 12:57S 27°52' E 153°20'0 0.0
2017-Sep-13 12:30S 27°52' E 153°20'0 0.0
2017-Sep-13 11:57S 27°52' E 153°20'0 0.0
2017-Sep-13 11:27S 27°52' E 153°20'0 0.0
2017-Sep-13 11:00S 27°52' E 153°20'0 0.0
2017-Sep-13 10:27S 27°52' E 153°20'0 0.0
2017-Sep-13 10:00S 27°52' E 153°20'0 0.0
2017-Sep-13 09:27S 27°52' E 153°20'0 0.0
2017-Sep-13 09:00S 27°52' E 153°20'0 0.0
2017-Sep-13 07:39S 27°52' E 153°20'0 0.0
2017-Sep-13 07:30S 27°52' E 153°20'0 0.0
2017-Sep-13 06:48S 27°52' E 153°20'0 0.0
2017-Sep-13 06:27S 27°52' E 153°20'0 0.0
2017-Sep-13 05:57S 27°52' E 153°20'0 0.0
2017-Sep-13 05:27S 27°52' E 153°20'0 0.0
2017-Sep-13 00:48S 27°52' E 153°20'0 0.0
2017-Sep-13 00:18S 27°52' E 153°20'0 0.0
2017-Sep-13 00:00S 27°52' E 153°20'0 0.0
2017-Sep-12 23:27S 27°52' E 153°20'0 0.0
2017-Sep-12 22:54S 27°52' E 153°20'0 0.0
2017-Sep-12 22:30S 27°52' E 153°20'0 0.0
2017-Sep-12 22:00S 27°52' E 153°20'0 0.0
2017-Sep-12 21:27S 27°52' E 153°20'0 0.0
2017-Sep-12 20:48S 27°52' E 153°20'0 0.0
2017-Sep-12 20:27S 27°52' E 153°20'0 0.0
2017-Sep-12 19:48S 27°52' E 153°20'0 0.0
2017-Sep-12 19:15S 27°52' E 153°20'0 0.0
2017-Sep-12 18:57S 27°52' E 153°20'0 0.0
2017-Sep-12 18:30S 27°52' E 153°20'0 0.0
2017-Sep-12 18:00S 27°52' E 153°20'0 0.0
2017-Sep-12 17:30S 27°52' E 153°20'0 0.0
2017-Sep-12 17:00S 27°52' E 153°20'0 0.0
2017-Sep-12 16:21S 27°52' E 153°20'0 0.0
2017-Sep-12 15:57S 27°52' E 153°20'0 0.0
2017-Sep-12 15:30S 27°52' E 153°20'0 0.0
2017-Sep-12 15:00S 27°52' E 153°20'0 0.0
2017-Sep-12 14:30S 27°52' E 153°20'0 0.0
2017-Sep-12 13:58S 27°52' E 153°20'0 0.0
2017-Sep-12 13:27S 27°52' E 153°20'0 0.0
2017-Sep-12 13:00S 27°52' E 153°20'0 0.0
2017-Sep-12 12:27S 27°52' E 153°20'0 0.0
2017-Sep-12 12:00S 27°52' E 153°20'0 0.0
2017-Sep-12 11:30S 27°52' E 153°20'0 0.0
2017-Sep-12 10:39S 27°52' E 153°20'0 0.0
2017-Sep-12 10:30S 27°52' E 153°20'0 0.0
2017-Sep-12 10:00S 27°52' E 153°20'0 0.0
2017-Sep-12 09:27S 27°52' E 153°20'0 0.0
2017-Sep-12 09:00S 27°52' E 153°20'0 0.0
2017-Sep-12 08:30S 27°52' E 153°20'0 0.0
2017-Sep-12 07:58S 27°52' E 153°20'0 0.0
2017-Sep-12 07:27S 27°52' E 153°20'0 0.0
2017-Sep-12 06:57S 27°52' E 153°20'0 0.0
2017-Sep-12 06:30S 27°52' E 153°20'0 0.0
2017-Sep-12 05:54S 27°52' E 153°20'0 0.0
2017-Sep-12 05:30S 27°52' E 153°20'0 0.0
2017-Sep-12 04:45S 27°52' E 153°20'0 0.0
2017-Sep-12 04:27S 27°52' E 153°20'0 0.0
2017-Sep-12 03:57S 27°52' E 153°20'0 0.0
2017-Sep-12 02:48S 27°52' E 153°20'0 0.0
2017-Sep-12 02:28S 27°52' E 153°20'0 0.0
2017-Sep-12 00:51S 27°52' E 153°20'0 0.0
2017-Sep-12 00:30S 27°52' E 153°20'0 0.0
2017-Sep-12 00:00S 27°52' E 153°20'0 0.0
2017-Sep-11 23:30S 27°52' E 153°20'0 0.0
2017-Sep-11 22:57S 27°52' E 153°20'0 0.0
2017-Sep-11 22:24S 27°52' E 153°20'0 0.0
2017-Sep-11 22:00S 27°52' E 153°20'0 0.0
2017-Sep-11 21:24S 27°52' E 153°20'0 0.1
2017-Sep-11 20:57S 27°52' E 153°20'0 0.0
2017-Sep-11 20:27S 27°52' E 153°20'0 0.0
2017-Sep-11 19:51S 27°52' E 153°20'0 0.0
2017-Sep-11 19:30S 27°52' E 153°20'0 0.0
2017-Sep-11 17:06S 27°52' E 153°20'0 0.0
2017-Sep-11 16:54S 27°52' E 153°20'0 0.0
2017-Sep-11 16:30S 27°52' E 153°20'0 0.0
2017-Sep-11 16:00S 27°52' E 153°20'0 0.0
2017-Sep-11 15:24S 27°52' E 153°20'0 0.0
2017-Sep-11 15:00S 27°52' E 153°20'0 0.0
2017-Sep-11 14:30S 27°52' E 153°20'0 0.0
2017-Sep-11 14:00S 27°52' E 153°20'0 0.0
2017-Sep-11 13:22S 27°52' E 153°20'0 0.0
2017-Sep-11 13:00S 27°52' E 153°20'0 0.0
2017-Sep-11 12:31S 27°52' E 153°20'0 0.0
2017-Sep-11 12:00S 27°52' E 153°20'0 0.0
2017-Sep-11 11:30S 27°52' E 153°20'0 0.0
2017-Sep-11 09:24S 27°52' E 153°20'0 0.0
2017-Sep-11 08:57S 27°52' E 153°20'0 0.0
2017-Sep-11 08:18S 27°52' E 153°20'0 0.0
2017-Sep-11 07:57S 27°52' E 153°20'0 0.0
2017-Sep-11 06:57S 27°52' E 153°20'0 0.0
2017-Sep-11 06:30S 27°52' E 153°20'0 0.0
2017-Sep-11 06:00S 27°52' E 153°20'0 0.0
2017-Sep-11 02:18S 27°52' E 153°20'0 0.2
2017-Sep-11 01:54S 27°52' E 153°20'0 0.0
2017-Sep-11 01:24S 27°52' E 153°20'0 0.0
2017-Sep-11 01:00S 27°52' E 153°20'0 0.0
2017-Sep-11 00:16S 27°52' E 153°20'0 0.0
2017-Sep-10 23:57S 27°52' E 153°20'  
Track history (hours):
 
Tides and Currents Weather Stations Pressure Air Temp Water Temp Dewpoint Dewpoint Depression Visibility Wind Speed Wind Dir Waves Ship Positions

Atlantic Princess

Last reported at 2017-Sep-20 21:57 UTC. Time now 2017-Nov-18 12:29 UTC.
Position S 27°49' E 153°29'.
Warning: this ship's position is 58 days out of date.

Length 24 m.

Type: Pleasure craft. MMSI: 503188700.

Date/timePositionNaut miles runAvg speedWind from/ knotsBaromVisibWave heightAir tempDewpointWater temp
2017-Sep-20 21:57S 27°49' E 153°29'4 8.0
2017-Sep-20 21:29S 27°53' E 153°28'4 6.4
2017-Sep-20 20:50S 27°56' E 153°25'3 6.5
2017-Sep-20 20:25S 27°53' E 153°25'2 3.9
2017-Sep-20 19:58S 27°53' E 153°23'2 4.5
2017-Sep-20 19:27S 27°51' E 153°21'1 2.6
2017-Sep-20 19:00S 27°52' E 153°20'0 0.0
2017-Sep-20 18:30S 27°52' E 153°20'0 0.0
2017-Sep-20 18:00S 27°52' E 153°20'0 0.0
2017-Sep-20 17:30S 27°52' E 153°20'0 0.0
2017-Sep-20 16:57S 27°52' E 153°20'0 0.0
2017-Sep-20 16:27S 27°52' E 153°20'0 0.0
2017-Sep-20 15:57S 27°52' E 153°20'0 0.0
2017-Sep-20 15:30S 27°52' E 153°20'0 0.0
2017-Sep-20 14:54S 27°52' E 153°20'0 0.0
2017-Sep-20 14:00S 27°52' E 153°20'0 0.0
2017-Sep-20 13:30S 27°52' E 153°20'0 0.0
2017-Sep-20 13:00S 27°52' E 153°20'0 0.0
2017-Sep-20 12:30S 27°52' E 153°20'0 0.0
2017-Sep-20 12:00S 27°52' E 153°20'0 0.0
2017-Sep-20 11:30S 27°52' E 153°20'0 0.0
2017-Sep-20 10:57S 27°52' E 153°20'0 0.0
2017-Sep-20 10:30S 27°52' E 153°20'0 0.0
2017-Sep-20 10:00S 27°52' E 153°20'0 0.0
2017-Sep-20 09:30S 27°52' E 153°20'0 0.0
2017-Sep-20 09:00S 27°52' E 153°20'0 0.0
2017-Sep-20 08:30S 27°52' E 153°20'0 0.0
2017-Sep-20 08:00S 27°52' E 153°20'0 0.0
2017-Sep-20 07:27S 27°52' E 153°20'0 0.0
2017-Sep-20 06:57S 27°52' E 153°20'0 0.0
2017-Sep-20 06:30S 27°52' E 153°20'0 0.0
2017-Sep-20 06:00S 27°52' E 153°20'0 0.0
2017-Sep-20 05:30S 27°52' E 153°20'0 0.0
2017-Sep-20 05:00S 27°52' E 153°20'0 0.0
2017-Sep-20 04:30S 27°52' E 153°20'0 0.0
2017-Sep-20 04:00S 27°52' E 153°20'0 0.0
2017-Sep-20 03:27S 27°52' E 153°20'0 0.0
2017-Sep-20 02:57S 27°52' E 153°20'0 0.0
2017-Sep-20 02:30S 27°52' E 153°20'0 0.0
2017-Sep-20 02:00S 27°52' E 153°20'0 0.0
2017-Sep-20 01:30S 27°52' E 153°20'0 0.0
2017-Sep-20 01:00S 27°52' E 153°20'0 1.0
2017-Sep-20 00:30S 27°52' E 153°21'2 3.8
2017-Sep-19 23:59S 27°52' E 153°23'4 2.7
2017-Sep-19 22:32S 27°56' E 153°25'0 7.3
2017-Sep-19 22:30S 27°55' E 153°25'3 7.0
2017-Sep-19 22:00S 27°52' E 153°25'3 4.3
2017-Sep-19 21:25S 27°51' E 153°22'2 3.0
2017-Sep-19 20:53S 27°52' E 153°20'0 0.0
2017-Sep-19 20:29S 27°52' E 153°20'0 0.0
2017-Sep-19 19:59S 27°52' E 153°20'0 0.0
2017-Sep-19 19:23S 27°52' E 153°20'0 0.0
2017-Sep-19 18:50S 27°52' E 153°20'0 0.0
2017-Sep-19 18:26S 27°52' E 153°20'0 0.0
2017-Sep-19 17:59S 27°52' E 153°20'0 0.0
2017-Sep-19 17:29S 27°52' E 153°20'0 0.0
2017-Sep-19 15:05S 27°52' E 153°20'0 0.0
2017-Sep-19 14:56S 27°52' E 153°20'0 0.0
2017-Sep-19 14:26S 27°52' E 153°20'0 0.0
2017-Sep-19 13:56S 27°52' E 153°20'0 0.0
2017-Sep-19 13:26S 27°52' E 153°20'0 0.0
2017-Sep-19 12:59S 27°52' E 153°20'0 0.0
2017-Sep-19 12:29S 27°52' E 153°20'0 0.0
2017-Sep-19 11:59S 27°52' E 153°20'0 0.0
2017-Sep-19 11:29S 27°52' E 153°20'0 0.0
2017-Sep-19 10:32S 27°52' E 153°20'0 0.0
2017-Sep-19 10:11S 27°52' E 153°20'0 0.0
2017-Sep-19 09:32S 27°52' E 153°20'0 0.0
2017-Sep-19 09:20S 27°52' E 153°20'0 0.0
2017-Sep-19 08:50S 27°52' E 153°20'0 0.0
2017-Sep-19 08:20S 27°52' E 153°20'0 0.0
2017-Sep-19 07:59S 27°52' E 153°20'0 0.0
2017-Sep-19 07:29S 27°52' E 153°20'0 0.0
2017-Sep-19 06:50S 27°52' E 153°20'0 0.0
2017-Sep-19 06:29S 27°52' E 153°20'0 0.0
2017-Sep-19 05:56S 27°52' E 153°20'0 0.0
2017-Sep-19 05:20S 27°52' E 153°20'0 0.0
2017-Sep-19 04:59S 27°52' E 153°20'0 0.0
2017-Sep-19 04:26S 27°52' E 153°20'0 0.0
2017-Sep-19 03:53S 27°52' E 153°20'0 0.0
2017-Sep-19 03:29S 27°52' E 153°20'0 0.0
2017-Sep-19 02:59S 27°52' E 153°20'0 0.0
2017-Sep-19 02:29S 27°52' E 153°20'0 0.0
2017-Sep-19 01:53S 27°52' E 153°20'0 0.0
2017-Sep-19 01:29S 27°52' E 153°20'0 0.0
2017-Sep-19 00:59S 27°52' E 153°20'0 0.0
2017-Sep-19 00:29S 27°52' E 153°20'0 0.0
2017-Sep-18 23:53S 27°52' E 153°20'0 0.0
2017-Sep-18 23:26S 27°52' E 153°20'0 0.0
2017-Sep-18 22:56S 27°52' E 153°20'0 0.0
2017-Sep-18 22:29S 27°52' E 153°20'0 0.0
2017-Sep-18 21:56S 27°52' E 153°20'0 0.0
2017-Sep-18 21:29S 27°52' E 153°20'0 0.0
2017-Sep-18 20:59S 27°52' E 153°20'0 0.0
2017-Sep-18 20:26S 27°52' E 153°20'0 0.0
2017-Sep-18 19:50S 27°52' E 153°20'0 0.0
2017-Sep-18 19:26S 27°52' E 153°20'0 0.0
2017-Sep-18 18:59S 27°52' E 153°20'0 0.0
2017-Sep-18 18:26S 27°52' E 153°20'0 0.0
2017-Sep-18 17:59S 27°52' E 153°20'0 0.0
2017-Sep-18 17:20S 27°52' E 153°20'0 0.0
2017-Sep-18 16:59S 27°52' E 153°20'0 0.0
2017-Sep-18 16:29S 27°52' E 153°20'0 0.0
2017-Sep-18 15:59S 27°52' E 153°20'0 0.0
2017-Sep-18 15:29S 27°52' E 153°20'0 0.0
2017-Sep-18 14:59S 27°52' E 153°20'0 0.0
2017-Sep-18 14:29S 27°52' E 153°20'0 0.0
2017-Sep-18 13:56S 27°52' E 153°20'0 0.0
2017-Sep-18 13:29S 27°52' E 153°20'0 0.0
2017-Sep-18 12:56S 27°52' E 153°20'0 0.0
2017-Sep-18 12:29S 27°52' E 153°20'0 0.0
2017-Sep-18 11:59S 27°52' E 153°20'0 0.0
2017-Sep-18 11:29S 27°52' E 153°20'0 0.0
2017-Sep-18 10:59S 27°52' E 153°20'0 0.0
2017-Sep-18 10:29S 27°52' E 153°20'0 0.0
2017-Sep-18 09:59S 27°52' E 153°20'0 0.0
2017-Sep-18 09:26S 27°52' E 153°20'0 0.0
2017-Sep-18 08:56S 27°52' E 153°20'0 0.0
2017-Sep-18 08:29S 27°52' E 153°20'0 0.0
2017-Sep-18 07:56S 27°52' E 153°20'0 0.0
2017-Sep-18 07:29S 27°52' E 153°20'0 0.0
2017-Sep-18 06:59S 27°52' E 153°20'0 0.0
2017-Sep-18 06:17S 27°52' E 153°20'0 0.0
2017-Sep-18 05:59S 27°52' E 153°20'0 0.0
2017-Sep-18 05:23S 27°52' E 153°20'0 0.0
2017-Sep-18 04:59S 27°52' E 153°20'0 0.0
2017-Sep-18 04:26S 27°52' E 153°20'0 0.0
2017-Sep-18 03:55S 27°52' E 153°20'0 0.0
2017-Sep-18 03:01S 27°52' E 153°20'0 0.0
2017-Sep-18 02:55S 27°52' E 153°20'0 0.0
2017-Sep-18 02:25S 27°52' E 153°20'0 0.0
2017-Sep-18 01:59S 27°52' E 153°20'0 0.0
2017-Sep-18 01:26S 27°52' E 153°20'0 0.0
2017-Sep-18 00:59S 27°52' E 153°20'0 0.0
2017-Sep-18 00:23S 27°52' E 153°20'0 0.0
2017-Sep-17 21:17S 27°52' E 153°20'0 0.0
2017-Sep-17 20:59S 27°52' E 153°20'0 0.0
2017-Sep-17 20:29S 27°52' E 153°20'0 0.0
2017-Sep-17 19:56S 27°52' E 153°20'0 0.0
2017-Sep-17 19:29S 27°52' E 153°20'0 0.0
2017-Sep-17 18:59S 27°52' E 153°20'0 0.0
2017-Sep-17 18:29S 27°52' E 153°20'0 0.0
2017-Sep-17 17:59S 27°52' E 153°20'0 0.0
2017-Sep-17 17:29S 27°52' E 153°20'0 0.0
2017-Sep-17 16:59S 27°52' E 153°20'0 0.0
2017-Sep-17 16:29S 27°52' E 153°20'0 0.0
2017-Sep-17 15:59S 27°52' E 153°20'0 0.0
2017-Sep-17 15:26S 27°52' E 153°20'0 0.0
2017-Sep-17 14:56S 27°52' E 153°20'0 0.0
2017-Sep-17 14:29S 27°52' E 153°20'0 0.0
2017-Sep-17 13:59S 27°52' E 153°20'0 0.0
2017-Sep-17 13:29S 27°52' E 153°20'0 0.0
2017-Sep-17 12:59S 27°52' E 153°20'0 0.0
2017-Sep-17 12:29S 27°52' E 153°20'0 0.0
2017-Sep-17 11:59S 27°52' E 153°20'0 0.0
2017-Sep-17 08:56S 27°52' E 153°20'0 0.0
2017-Sep-17 08:29S 27°52' E 153°20'0 0.0
2017-Sep-17 04:56S 27°52' E 153°20'0 0.0
2017-Sep-17 04:29S 27°52' E 153°20'0 0.0
2017-Sep-17 03:59S 27°52' E 153°20'0 0.0
2017-Sep-17 03:29S 27°52' E 153°20'0 0.0
2017-Sep-17 00:38S 27°52' E 153°20'0 0.0
2017-Sep-17 00:26S 27°52' E 153°20'0 0.0
2017-Sep-16 20:26S 27°52' E 153°20'0 0.0
2017-Sep-16 19:59S 27°52' E 153°20'0 0.0
2017-Sep-16 19:26S 27°52' E 153°20'0 0.0
2017-Sep-16 18:59S 27°52' E 153°20'0 0.0
2017-Sep-16 18:26S 27°52' E 153°20'0 0.0
2017-Sep-16 17:59S 27°52' E 153°20'0 0.0
2017-Sep-16 17:29S 27°52' E 153°20'0 0.0
2017-Sep-16 16:59S 27°52' E 153°20'0 0.0
2017-Sep-16 16:29S 27°52' E 153°20'0 0.0
2017-Sep-16 15:56S 27°52' E 153°20'0 0.0
2017-Sep-16 15:29S 27°52' E 153°20'0 0.0
2017-Sep-16 14:56S 27°52' E 153°20'0 0.0
2017-Sep-16 14:02S 27°52' E 153°20'0 0.1
2017-Sep-16 13:56S 27°52' E 153°20'0 0.0
2017-Sep-16 13:29S 27°52' E 153°20'0 0.0
2017-Sep-16 10:14S 27°52' E 153°20'0 0.0
2017-Sep-16 09:56S 27°52' E 153°20'0 0.0
2017-Sep-16 09:29S 27°52' E 153°20'0 0.0
2017-Sep-16 08:59S 27°52' E 153°20'0 0.0
2017-Sep-16 08:14S 27°52' E 153°20'0 0.0
2017-Sep-16 07:20S 27°52' E 153°20'0 0.0
2017-Sep-16 06:59S 27°52' E 153°20'0 0.0
2017-Sep-16 06:29S 27°52' E 153°20'0 0.0
2017-Sep-15 23:53S 27°52' E 153°20'0 0.0
2017-Sep-15 23:29S 27°52' E 153°20'0 0.0
2017-Sep-15 22:59S 27°52' E 153°20'0 0.0
2017-Sep-15 22:26S 27°52' E 153°20'0 0.0
2017-Sep-15 21:50S 27°52' E 153°20'0 0.0
2017-Sep-15 21:29S 27°52' E 153°20'0 0.0
2017-Sep-15 20:53S 27°52' E 153°20'0 0.0
2017-Sep-15 20:29S 27°52' E 153°20'0 0.0
2017-Sep-15 19:59S 27°52' E 153°20'0 0.0
2017-Sep-15 19:23S 27°52' E 153°20'0 0.0
2017-Sep-15 18:59S 27°52' E 153°20'0 0.0
2017-Sep-15 18:29S 27°52' E 153°20'0 0.0
2017-Sep-15 17:59S 27°52' E 153°20'0 0.0
2017-Sep-15 17:29S 27°52' E 153°20'0 0.0
2017-Sep-15 16:59S 27°52' E 153°20'0 0.0
2017-Sep-15 16:26S 27°52' E 153°20'0 0.0
2017-Sep-15 15:56S 27°52' E 153°20'0 0.0
2017-Sep-15 15:29S 27°52' E 153°20'0 0.0
2017-Sep-15 14:59S 27°52' E 153°20'0 0.0
2017-Sep-15 14:29S 27°52' E 153°20'0 0.0
2017-Sep-15 13:59S 27°52' E 153°20'0 0.0
2017-Sep-15 13:29S 27°52' E 153°20'0 0.0
2017-Sep-15 12:59S 27°52' E 153°20'0 0.0
2017-Sep-15 12:26S 27°52' E 153°20'0 0.0
2017-Sep-15 11:59S 27°52' E 153°20'0 0.0
2017-Sep-15 11:29S 27°52' E 153°20'0 0.0
2017-Sep-15 10:59S 27°52' E 153°20'0 0.0
2017-Sep-15 10:29S 27°52' E 153°20'0 0.0
2017-Sep-15 09:59S 27°52' E 153°20'0 0.0
2017-Sep-15 09:29S 27°52' E 153°20'0 0.0
2017-Sep-15 08:59S 27°52' E 153°20'0 0.0
2017-Sep-15 08:29S 27°52' E 153°20'0 0.0
2017-Sep-15 07:59S 27°52' E 153°20'0 0.0
2017-Sep-15 07:29S 27°52' E 153°20'0 0.0
2017-Sep-15 06:56S 27°52' E 153°20'0 0.0
2017-Sep-15 05:47S 27°52' E 153°20'0 0.0
2017-Sep-15 05:29S 27°52' E 153°20'0 0.0
2017-Sep-15 04:53S 27°52' E 153°20'0 0.0
2017-Sep-14 22:59S 27°52' E 153°20'0 0.0
2017-Sep-14 22:29S 27°52' E 153°20'0 0.0
2017-Sep-14 21:56S 27°52' E 153°20'0 0.0
2017-Sep-14 21:29S 27°52' E 153°20'0 0.0
2017-Sep-14 20:59S 27°52' E 153°20'0 0.0
2017-Sep-14 20:29S 27°52' E 153°20'0 0.0
2017-Sep-14 19:59S 27°52' E 153°20'0 0.0
2017-Sep-14 19:29S 27°52' E 153°20'0 0.0
2017-Sep-14 18:59S 27°52' E 153°20'0 0.0
2017-Sep-14 18:29S 27°52' E 153°20'0 0.0
2017-Sep-14 17:59S 27°52' E 153°20'0 0.0
2017-Sep-14 17:23S 27°52' E 153°20'0 0.0
2017-Sep-14 16:59S 27°52' E 153°20'0 0.0
2017-Sep-14 16:29S 27°52' E 153°20'0 0.0
2017-Sep-14 15:59S 27°52' E 153°20'0 0.0
2017-Sep-14 15:29S 27°52' E 153°20'0 0.0
2017-Sep-14 14:59S 27°52' E 153°20'0 0.0
2017-Sep-14 14:29S 27°52' E 153°20'0 0.0
2017-Sep-14 13:59S 27°52' E 153°20'0 0.0
2017-Sep-14 13:29S 27°52' E 153°20'0 0.0
2017-Sep-14 12:59S 27°52' E 153°20'0 0.0
2017-Sep-14 12:29S 27°52' E 153°20'0 0.0
2017-Sep-14 11:59S 27°52' E 153°20'0 0.0
2017-Sep-14 11:29S 27°52' E 153°20'0 0.0
2017-Sep-14 10:50S 27°52' E 153°20'0 0.0
2017-Sep-14 10:29S 27°52' E 153°20'0 0.0
2017-Sep-14 09:59S 27°52' E 153°20'0 0.0
2017-Sep-14 09:29S 27°52' E 153°20'0 0.0
2017-Sep-14 08:59S 27°52' E 153°20'0 0.0
2017-Sep-14 08:29S 27°52' E 153°20'0 0.0
2017-Sep-14 07:59S 27°52' E 153°20'0 0.8
2017-Sep-14 07:26S 27°52' E 153°20'0 0.0
2017-Sep-14 06:56S 27°52' E 153°20'0 0.0
2017-Sep-14 06:29S 27°52' E 153°20'0 0.0
2017-Sep-14 05:59S 27°52' E 153°20'0 0.0
2017-Sep-14 05:30S 27°52' E 153°20'0 0.9
2017-Sep-14 05:00S 27°52' E 153°20'0 0.0
2017-Sep-14 04:30S 27°52' E 153°20'0 0.0
2017-Sep-14 04:00S 27°52' E 153°20'0 0.0
2017-Sep-14 03:24S 27°52' E 153°20'0 0.0
2017-Sep-14 02:51S 27°52' E 153°20'0 0.0
2017-Sep-14 02:30S 27°52' E 153°20'0 0.0
2017-Sep-14 02:00S 27°52' E 153°20'0 0.0
2017-Sep-14 01:06S 27°52' E 153°20'0 0.0
2017-Sep-14 00:45S 27°52' E 153°20'0 0.0
2017-Sep-14 00:30S 27°52' E 153°20'0 0.0
2017-Sep-13 23:54S 27°52' E 153°20'0 0.0
2017-Sep-13 23:27S 27°52' E 153°20'0 0.0
2017-Sep-13 19:48S 27°52' E 153°20'0 0.0
2017-Sep-13 19:30S 27°52' E 153°20'0 0.0
2017-Sep-13 18:51S 27°52' E 153°20'0 0.0
2017-Sep-13 18:30S 27°52' E 153°20'0 0.0
2017-Sep-13 18:00S 27°52' E 153°20'0 0.0
2017-Sep-13 17:30S 27°52' E 153°20'0 0.0
2017-Sep-13 16:57S 27°52' E 153°20'0 0.0
2017-Sep-13 16:30S 27°52' E 153°20'0 0.0
2017-Sep-13 15:57S 27°52' E 153°20'0 0.0
2017-Sep-13 15:30S 27°52' E 153°20'0 0.0
2017-Sep-13 15:01S 27°52' E 153°20'0 0.0
2017-Sep-13 14:30S 27°52' E 153°20'0 0.0
2017-Sep-13 14:00S 27°52' E 153°20'0 0.0
2017-Sep-13 13:30S 27°52' E 153°20'0 0.0
2017-Sep-13 12:57S 27°52' E 153°20'0 0.0
2017-Sep-13 12:30S 27°52' E 153°20'0 0.0
2017-Sep-13 11:57S 27°52' E 153°20'0 0.0
2017-Sep-13 11:27S 27°52' E 153°20'0 0.0
2017-Sep-13 11:00S 27°52' E 153°20'0 0.0
2017-Sep-13 10:27S 27°52' E 153°20'0 0.0
2017-Sep-13 10:00S 27°52' E 153°20'0 0.0
2017-Sep-13 09:27S 27°52' E 153°20'0 0.0
2017-Sep-13 09:00S 27°52' E 153°20'0 0.0
2017-Sep-13 07:39S 27°52' E 153°20'0 0.0
2017-Sep-13 07:30S 27°52' E 153°20'0 0.0
2017-Sep-13 06:48S 27°52' E 153°20'0 0.0
2017-Sep-13 06:27S 27°52' E 153°20'0 0.0
2017-Sep-13 05:57S 27°52' E 153°20'0 0.0
2017-Sep-13 05:27S 27°52' E 153°20'0 0.0
2017-Sep-13 00:48S 27°52' E 153°20'0 0.0
2017-Sep-13 00:18S 27°52' E 153°20'0 0.0
2017-Sep-13 00:00S 27°52' E 153°20'0 0.0
2017-Sep-12 23:27S 27°52' E 153°20'0 0.0
2017-Sep-12 22:54S 27°52' E 153°20'0 0.0
2017-Sep-12 22:30S 27°52' E 153°20'0 0.0
2017-Sep-12 22:00S 27°52' E 153°20'0 0.0
2017-Sep-12 21:27S 27°52' E 153°20'0 0.0
2017-Sep-12 20:48S 27°52' E 153°20'0 0.0
2017-Sep-12 20:27S 27°52' E 153°20'0 0.0
2017-Sep-12 19:48S 27°52' E 153°20'0 0.0
2017-Sep-12 19:15S 27°52' E 153°20'0 0.0
2017-Sep-12 18:57S 27°52' E 153°20'0 0.0
2017-Sep-12 18:30S 27°52' E 153°20'0 0.0
2017-Sep-12 18:00S 27°52' E 153°20'0 0.0
2017-Sep-12 17:30S 27°52' E 153°20'0 0.0
2017-Sep-12 17:00S 27°52' E 153°20'0 0.0
2017-Sep-12 16:21S 27°52' E 153°20'0 0.0
2017-Sep-12 15:57S 27°52' E 153°20'0 0.0
2017-Sep-12 15:30S 27°52' E 153°20'0 0.0
2017-Sep-12 15:00S 27°52' E 153°20'0 0.0
2017-Sep-12 14:30S 27°52' E 153°20'0 0.0
2017-Sep-12 13:58S 27°52' E 153°20'0 0.0
2017-Sep-12 13:27S 27°52' E 153°20'0 0.0
2017-Sep-12 13:00S 27°52' E 153°20'0 0.0
2017-Sep-12 12:27S 27°52' E 153°20'0 0.0
2017-Sep-12 12:00S 27°52' E 153°20'0 0.0
2017-Sep-12 11:30S 27°52' E 153°20'0 0.0
2017-Sep-12 10:39S 27°52' E 153°20'0 0.0
2017-Sep-12 10:30S 27°52' E 153°20'0 0.0
2017-Sep-12 10:00S 27°52' E 153°20'0 0.0
2017-Sep-12 09:27S 27°52' E 153°20'0 0.0
2017-Sep-12 09:00S 27°52' E 153°20'0 0.0
2017-Sep-12 08:30S 27°52' E 153°20'0 0.0
2017-Sep-12 07:58S 27°52' E 153°20'0 0.0
2017-Sep-12 07:27S 27°52' E 153°20'0 0.0
2017-Sep-12 06:57S 27°52' E 153°20'0 0.0
2017-Sep-12 06:30S 27°52' E 153°20'0 0.0
2017-Sep-12 05:54S 27°52' E 153°20'0 0.0
2017-Sep-12 05:30S 27°52' E 153°20'0 0.0
2017-Sep-12 04:45S 27°52' E 153°20'0 0.0
2017-Sep-12 04:27S 27°52' E 153°20'0 0.0
2017-Sep-12 03:57S 27°52' E 153°20'0 0.0
2017-Sep-12 02:48S 27°52' E 153°20'0 0.0
2017-Sep-12 02:28S 27°52' E 153°20'0 0.0
2017-Sep-12 00:51S 27°52' E 153°20'0 0.0
2017-Sep-12 00:30S 27°52' E 153°20'0 0.0
2017-Sep-12 00:00S 27°52' E 153°20'0 0.0
2017-Sep-11 23:30S 27°52' E 153°20'0 0.0
2017-Sep-11 22:57S 27°52' E 153°20'0 0.0
2017-Sep-11 22:24S 27°52' E 153°20'0 0.0
2017-Sep-11 22:00S 27°52' E 153°20'0 0.0
2017-Sep-11 21:24S 27°52' E 153°20'0 0.1
2017-Sep-11 20:57S 27°52' E 153°20'0 0.0
2017-Sep-11 20:27S 27°52' E 153°20'0 0.0
2017-Sep-11 19:51S 27°52' E 153°20'0 0.0
2017-Sep-11 19:30S 27°52' E 153°20'0 0.0
2017-Sep-11 17:06S 27°52' E 153°20'0 0.0
2017-Sep-11 16:54S 27°52' E 153°20'0 0.0
2017-Sep-11 16:30S 27°52' E 153°20'0 0.0
2017-Sep-11 16:00S 27°52' E 153°20'0 0.0
2017-Sep-11 15:24S 27°52' E 153°20'0 0.0
2017-Sep-11 15:00S 27°52' E 153°20'0 0.0
2017-Sep-11 14:30S 27°52' E 153°20'0 0.0
2017-Sep-11 14:00S 27°52' E 153°20'0 0.0
2017-Sep-11 13:22S 27°52' E 153°20'0 0.0
2017-Sep-11 13:00S 27°52' E 153°20'0 0.0
2017-Sep-11 12:31S 27°52' E 153°20'0 0.0
2017-Sep-11 12:00S 27°52' E 153°20'0 0.0
2017-Sep-11 11:30S 27°52' E 153°20'0 0.0
2017-Sep-11 09:24S 27°52' E 153°20'0 0.0
2017-Sep-11 08:57S 27°52' E 153°20'0 0.0
2017-Sep-11 08:18S 27°52' E 153°20'0 0.0
2017-Sep-11 07:57S 27°52' E 153°20'0 0.0
2017-Sep-11 06:57S 27°52' E 153°20'0 0.0
2017-Sep-11 06:30S 27°52' E 153°20'0 0.0
2017-Sep-11 06:00S 27°52' E 153°20'0 0.0
2017-Sep-11 02:18S 27°52' E 153°20'0 0.2
2017-Sep-11 01:54S 27°52' E 153°20'0 0.0
2017-Sep-11 01:24S 27°52' E 153°20'0 0.0
2017-Sep-11 01:00S 27°52' E 153°20'0 0.0
2017-Sep-11 00:16S 27°52' E 153°20'0 0.0
2017-Sep-10 23:57S 27°52' E 153°20'  

Dump ship's entire track history